createdAt,value
2018-05-03T00:00:37.910Z,23.73
2018-05-03T00:03:07.037Z,17.73
2018-05-03T00:05:35.377Z,16.70
2018-05-03T00:08:03.677Z,17.90
2018-05-03T00:10:32.012Z,16.37
2018-05-03T00:13:00.304Z,15.40
2018-05-03T00:15:28.656Z,18.60
2018-05-03T00:17:57.036Z,19.63
2018-05-03T00:20:25.333Z,15.83
2018-05-03T00:22:53.680Z,19.60
2018-05-03T00:25:21.976Z,16.83
2018-05-03T00:27:50.321Z,17.50
2018-05-03T00:30:19.384Z,16.70
2018-05-03T00:32:47.681Z,14.00
2018-05-03T00:35:16.033Z,18.27
2018-05-03T00:37:44.383Z,18.17
2018-05-03T00:40:12.672Z,22.10
2018-05-03T00:42:42.516Z,16.73
2018-05-03T00:45:11.582Z,16.13
2018-05-03T00:47:39.893Z,15.33
2018-05-03T00:50:08.236Z,17.30
2018-05-03T00:52:36.529Z,17.40
2018-05-03T00:55:04.957Z,15.70
2018-05-03T00:57:33.256Z,16.63
2018-05-03T01:00:01.613Z,18.67
2018-05-03T01:02:29.956Z,16.00
2018-05-03T01:04:59.033Z,19.27
2018-05-03T01:07:27.424Z,16.30
2018-05-03T01:09:55.720Z,16.13
2018-05-03T01:12:24.013Z,20.50
2018-05-03T01:14:52.360Z,15.43
2018-05-03T01:17:20.653Z,21.87
2018-05-03T01:19:49.000Z,20.30
2018-05-03T01:22:18.061Z,20.20
2018-05-03T01:24:46.406Z,18.27
2018-05-03T01:27:15.465Z,18.80
2018-05-03T01:29:43.813Z,20.07
2018-05-03T01:32:12.113Z,18.23
2018-05-03T01:34:40.557Z,18.30
2018-05-03T01:37:08.897Z,16.80
2018-05-03T01:39:37.209Z,21.33
2018-05-03T01:42:05.556Z,15.77
2018-05-03T01:44:34.681Z,17.20
2018-05-03T01:47:02.977Z,16.60
2018-05-03T01:49:31.273Z,16.30
2018-05-03T01:51:59.620Z,19.50
2018-05-03T01:54:28.685Z,16.30
2018-05-03T01:56:56.981Z,18.67
2018-05-03T01:59:25.337Z,18.87
2018-05-03T02:01:53.633Z,22.70
2018-05-03T02:04:21.925Z,17.97
2018-05-03T02:06:50.281Z,19.77
2018-05-03T02:09:19.333Z,16.40
2018-05-03T02:11:47.676Z,20.37
2018-05-03T02:14:16.761Z,16.87
2018-05-03T02:16:45.106Z,18.30
2018-05-03T02:19:13.542Z,18.90
2018-05-03T02:21:41.889Z,18.43
2018-05-03T02:24:10.232Z,22.10
2018-05-03T02:26:38.670Z,21.53
2018-05-03T02:29:07.048Z,18.80
2018-05-03T02:31:35.344Z,21.37
2018-05-03T02:34:03.694Z,19.03
2018-05-03T02:36:32.797Z,18.20
2018-05-03T02:39:01.141Z,19.23
2018-05-03T02:41:29.781Z,19.90
2018-05-03T02:43:58.081Z,18.87
2018-05-03T02:46:26.461Z,17.50
2018-05-03T02:48:54.808Z,21.03
2018-05-03T02:51:23.105Z,19.63
2018-05-03T02:53:51.456Z,19.87
2018-05-03T02:56:20.513Z,20.10
2018-05-03T02:59:00.833Z,19.30
2018-05-03T03:01:47.717Z,20.17
2018-05-03T03:04:33.841Z,19.37
2018-05-03T03:07:20.037Z,18.20
2018-05-03T03:13:34.308Z,21.23
2018-05-03T03:16:20.272Z,20.97
2018-05-03T03:19:06.388Z,20.80
2018-05-03T03:28:14.718Z,22.33
2018-05-03T03:31:01.450Z,22.10
2018-05-03T03:33:41.729Z,23.70
2018-05-03T03:36:21.733Z,19.90
2018-05-03T03:39:01.949Z,20.50
2018-05-03T03:41:51.973Z,22.23
2018-05-03T03:44:32.381Z,20.80
2018-05-03T03:47:00.677Z,21.00
2018-05-03T03:49:28.969Z,20.50
2018-05-03T03:51:58.077Z,26.00
2018-05-03T03:54:26.436Z,22.80
2018-05-03T03:56:54.797Z,21.70
2018-05-03T03:59:23.161Z,20.47
2018-05-03T04:01:52.225Z,19.50
2018-05-03T04:04:20.516Z,22.40
2018-05-03T04:06:49.024Z,19.83
2018-05-03T04:09:17.320Z,24.13
2018-05-03T04:11:45.615Z,23.40
2018-05-03T04:14:15.021Z,30.90
2018-05-03T04:16:43.325Z,26.77
2018-05-03T04:19:23.609Z,23.93
2018-05-03T04:22:04.487Z,22.67
2018-05-03T04:24:45.664Z,25.50
2018-05-03T04:27:13.960Z,24.00
2018-05-03T04:29:43.021Z,26.30
2018-05-03T04:32:11.361Z,24.37
2018-05-03T04:34:40.489Z,25.33
2018-05-03T04:37:08.789Z,26.23
2018-05-03T04:39:37.134Z,25.23
2018-05-03T04:42:05.481Z,24.17
2018-05-03T04:44:33.777Z,32.00
2018-05-03T04:47:02.208Z,24.47
2018-05-03T04:49:31.195Z,18.00
2018-05-03T04:51:59.541Z,22.10
2018-05-03T04:54:27.889Z,24.77
2018-05-03T04:56:56.237Z,21.47
2018-05-03T04:59:24.533Z,23.80
2018-05-03T05:01:52.882Z,21.33
2018-05-03T05:04:21.941Z,22.07
2018-05-03T05:06:50.293Z,22.07
2018-05-03T05:09:18.585Z,25.23
2018-05-03T05:11:46.934Z,22.83
2018-05-03T05:14:15.292Z,22.30
2018-05-03T05:16:43.581Z,22.07
2018-05-03T05:19:11.882Z,20.30
2018-05-03T05:21:40.994Z,22.30
2018-05-03T05:24:09.321Z,20.97
2018-05-03T05:26:38.384Z,21.40
2018-05-03T05:29:06.729Z,22.60
2018-05-03T05:31:35.915Z,23.47
2018-05-03T05:34:04.216Z,24.57
2018-05-03T05:36:32.509Z,23.60
2018-05-03T05:39:01.696Z,23.50
2018-05-03T05:41:29.992Z,24.00
2018-05-03T05:43:58.337Z,26.97
2018-05-03T05:46:26.629Z,24.97
2018-05-03T05:48:54.973Z,27.50
2018-05-03T05:51:24.037Z,22.60
2018-05-03T05:53:52.396Z,24.13
2018-05-03T05:56:20.697Z,24.90
2018-05-03T05:58:48.995Z,23.13
2018-05-03T06:01:17.337Z,22.47
2018-05-03T06:03:45.634Z,25.80
2018-05-03T06:06:14.741Z,23.13
2018-05-03T06:08:43.832Z,22.17
2018-05-03T06:11:12.945Z,20.33
2018-05-03T06:13:42.004Z,19.07
2018-05-03T06:16:10.349Z,30.53
2018-05-03T06:18:39.456Z,21.10
2018-05-03T06:21:07.749Z,20.37
2018-05-03T06:23:36.090Z,23.00
2018-05-03T06:26:04.438Z,21.20
2018-05-03T06:28:32.753Z,19.87
2018-05-03T06:31:01.045Z,20.90
2018-05-03T06:33:29.688Z,19.67
2018-05-03T06:35:57.985Z,19.97
2018-05-03T06:38:26.284Z,25.83
2018-05-03T06:40:55.397Z,19.83
2018-05-03T06:43:24.506Z,19.20
2018-05-03T06:45:53.568Z,17.57
2018-05-03T06:48:21.928Z,18.17
2018-05-03T06:50:50.221Z,22.30
2018-05-03T06:53:18.517Z,19.17
2018-05-03T06:55:46.856Z,20.90
2018-05-03T06:58:15.149Z,23.87
2018-05-03T07:00:44.656Z,18.27
2018-05-03T07:03:13.049Z,16.33
2018-05-03T07:05:42.116Z,15.47
2018-05-03T07:08:10.463Z,15.43
2018-05-03T07:10:38.754Z,13.97
2018-05-03T07:13:07.228Z,16.00
2018-05-03T07:15:35.573Z,20.50
2018-05-03T07:18:03.993Z,14.50
2018-05-03T07:20:32.224Z,16.30
2018-05-03T07:23:01.281Z,14.43
2018-05-03T07:25:29.651Z,18.97
2018-05-03T07:27:57.941Z,14.57
2018-05-03T07:30:26.241Z,15.17
2018-05-03T07:32:54.573Z,16.10
2018-05-03T07:35:22.865Z,16.07
2018-05-03T07:37:51.978Z,17.37
2018-05-03T07:40:20.269Z,14.83
2018-05-03T07:42:49.460Z,13.73
2018-05-03T07:45:17.762Z,13.90
2018-05-03T07:47:46.148Z,14.67
2018-05-03T07:50:14.532Z,15.87
2018-05-03T07:52:42.925Z,18.80
2018-05-03T07:55:11.312Z,15.13
2018-05-03T07:57:39.653Z,12.97
2018-05-03T08:00:07.952Z,14.43
2018-05-03T08:02:36.296Z,14.33
2018-05-03T08:05:05.362Z,14.00
2018-05-03T08:07:33.701Z,13.53
2018-05-03T08:10:02.761Z,12.33
2018-05-03T08:12:31.061Z,13.23
2018-05-03T08:14:59.409Z,11.80
2018-05-03T08:17:27.697Z,14.07
2018-05-03T08:19:56.041Z,12.53
2018-05-03T08:22:24.366Z,13.03
2018-05-03T08:24:52.692Z,12.50
2018-05-03T08:27:21.017Z,14.80
2018-05-03T08:29:49.302Z,10.30
2018-05-03T08:32:17.696Z,11.70
2018-05-03T08:34:46.092Z,11.03
2018-05-03T08:37:14.376Z,10.47
2018-05-03T08:39:42.708Z,9.57
2018-05-03T08:42:11.884Z,11.80
2018-05-03T08:44:40.269Z,10.47
2018-05-03T08:47:08.549Z,9.93
2018-05-03T08:49:37.255Z,9.07
2018-05-03T08:52:05.544Z,10.17
2018-05-03T08:54:33.829Z,14.70
2018-05-03T08:57:02.170Z,8.53
2018-05-03T08:59:30.517Z,9.10
2018-05-03T09:01:58.797Z,7.83
2018-05-03T09:04:27.133Z,10.43
2018-05-03T09:06:56.177Z,8.33
2018-05-03T09:09:24.511Z,10.00
2018-05-03T09:11:53.609Z,11.67
2018-05-03T09:14:21.892Z,10.90
2018-05-03T09:16:50.272Z,8.30
2018-05-03T09:19:18.556Z,7.93
2018-05-03T09:21:46.880Z,6.50
2018-05-03T09:24:15.973Z,7.13
2018-05-03T09:26:44.252Z,10.77
2018-05-03T09:29:12.597Z,8.43
2018-05-03T09:31:40.929Z,7.73
2018-05-03T09:34:09.212Z,6.17
2018-05-03T09:36:37.544Z,10.37
2018-05-03T09:39:06.610Z,5.10
2018-05-03T09:41:35.009Z,5.37
2018-05-03T09:44:03.348Z,4.80
2018-05-03T09:46:31.638Z,5.03
2018-05-03T09:49:00.210Z,6.33
2018-05-03T09:51:29.252Z,4.53
2018-05-03T09:53:57.581Z,2.73
2018-05-03T09:56:25.912Z,2.73
2018-05-03T09:58:54.193Z,4.40
2018-05-03T10:01:23.264Z,4.60
2018-05-03T10:03:51.758Z,2.80
2018-05-03T10:06:20.040Z,3.83
2018-05-03T10:08:48.321Z,2.80
2018-05-03T10:11:16.665Z,6.60
2018-05-03T10:13:45.709Z,4.60
2018-05-03T10:16:13.993Z,3.10
2018-05-03T10:18:42.320Z,5.87
2018-05-03T10:21:10.597Z,4.57
2018-05-03T10:23:39.198Z,5.97
2018-05-03T10:26:07.477Z,5.43
2018-05-03T10:28:35.776Z,3.30
2018-05-03T10:31:04.168Z,3.70
2018-05-03T10:33:33.289Z,2.70
2018-05-03T10:36:01.643Z,2.07
2018-05-03T10:38:29.936Z,3.97
2018-05-03T10:40:58.549Z,2.73
2018-05-03T10:43:26.832Z,2.40
2018-05-03T10:45:55.140Z,2.57
2018-05-03T10:48:23.461Z,3.03
2018-05-03T10:50:52.529Z,2.33
2018-05-03T10:53:20.860Z,2.50
2018-05-03T10:55:49.152Z,3.20
2018-05-03T10:58:18.221Z,3.63
2018-05-03T11:00:48.064Z,4.80
2018-05-03T11:03:17.112Z,3.27
2018-05-03T11:05:45.536Z,2.87
2018-05-03T11:08:13.820Z,4.23
2018-05-03T11:10:42.165Z,3.07
2018-05-03T11:13:10.449Z,2.00
2018-05-03T11:15:39.496Z,5.50
2018-05-03T11:18:07.832Z,2.47
2018-05-03T11:20:36.877Z,5.77
2018-05-03T11:23:05.304Z,2.40
2018-05-03T11:25:33.585Z,5.80
2018-05-03T11:28:01.912Z,1.67
2018-05-03T11:30:30.961Z,4.70
2018-05-03T11:32:59.240Z,3.37
2018-05-03T11:35:27.665Z,2.93
2018-05-03T11:37:56.002Z,4.40
2018-05-03T11:40:25.065Z,6.07
2018-05-03T11:42:53.448Z,6.50
2018-05-03T11:45:21.745Z,4.10
2018-05-03T11:47:50.026Z,4.20
2018-05-03T11:50:18.427Z,5.43
2018-05-03T11:52:46.705Z,7.43
2018-05-03T11:55:15.037Z,3.40
2018-05-03T11:57:44.129Z,3.47
2018-05-03T12:00:13.224Z,4.17
2018-05-03T12:02:41.606Z,2.97
2018-05-03T12:05:09.877Z,3.63
2018-05-03T12:07:38.160Z,3.37
2018-05-03T12:10:06.584Z,3.47
2018-05-03T12:12:34.861Z,2.93
2018-05-03T12:15:03.189Z,2.83
2018-05-03T12:17:32.277Z,3.93
2018-05-03T12:20:01.458Z,3.60
2018-05-03T12:22:29.741Z,2.70
2018-05-03T12:24:58.156Z,4.53
2018-05-03T12:27:26.644Z,6.00
2018-05-03T12:29:54.965Z,4.83
2018-05-03T12:32:23.245Z,6.03
2018-05-03T12:34:51.694Z,3.60
2018-05-03T12:37:21.548Z,2.80
2018-05-03T12:39:49.877Z,2.73
2018-05-03T12:42:18.953Z,4.47
2018-05-03T12:44:47.232Z,2.83
2018-05-03T12:47:15.564Z,5.30
2018-05-03T12:49:44.616Z,3.73
2018-05-03T12:52:12.948Z,3.73
2018-05-03T12:54:41.313Z,3.47
2018-05-03T12:57:09.641Z,3.83
2018-05-03T12:59:38.688Z,3.70
2018-05-03T13:02:07.101Z,3.27
2018-05-03T13:04:35.432Z,3.97
2018-05-03T13:07:04.525Z,3.87
2018-05-03T13:09:32.809Z,3.47
2018-05-03T13:12:01.164Z,6.23
2018-05-03T13:14:29.445Z,4.03
2018-05-03T13:16:57.847Z,3.47
2018-05-03T13:19:26.249Z,3.47
2018-05-03T13:21:54.540Z,4.73
2018-05-03T13:24:22.868Z,3.80
2018-05-03T13:26:51.917Z,4.97
2018-05-03T13:29:20.324Z,4.70
2018-05-03T13:31:48.605Z,4.30
2018-05-03T13:34:16.888Z,4.90
2018-05-03T13:36:45.216Z,3.90
2018-05-03T13:39:13.497Z,5.20
2018-05-03T13:41:41.825Z,4.90
2018-05-03T13:44:10.170Z,5.57
2018-05-03T13:46:38.501Z,6.03
2018-05-03T13:49:07.545Z,3.80
2018-05-03T13:51:35.872Z,3.97
2018-05-03T13:54:04.214Z,4.83
2018-05-03T13:56:32.545Z,5.67
2018-05-03T13:59:00.881Z,6.43
2018-05-03T14:01:29.164Z,5.80
2018-05-03T14:03:58.324Z,3.53
2018-05-03T14:06:26.682Z,4.97
2018-05-03T14:08:54.961Z,3.33
2018-05-03T14:11:23.288Z,4.30
2018-05-03T14:13:51.569Z,6.97
2018-05-03T14:16:19.893Z,3.33
2018-05-03T14:18:48.172Z,3.10
2018-05-03T14:21:18.708Z,4.50
2018-05-03T14:23:46.995Z,3.63
2018-05-03T14:26:15.272Z,3.40
2018-05-03T14:28:43.601Z,3.87
2018-05-03T14:31:11.959Z,4.27
2018-05-03T14:33:40.257Z,4.47
2018-05-03T14:36:08.545Z,2.80
2018-05-03T14:38:36.877Z,3.40
2018-05-03T14:41:05.925Z,3.50
2018-05-03T14:43:34.253Z,3.43
2018-05-03T14:46:02.701Z,4.17
2018-05-03T14:48:31.033Z,3.13
2018-05-03T14:50:59.361Z,3.13
2018-05-03T14:53:27.645Z,4.43
2018-05-03T14:55:55.973Z,5.13
2018-05-03T14:58:24.256Z,2.47
2018-05-03T15:00:52.609Z,2.50
2018-05-03T15:03:21.644Z,2.27
2018-05-03T15:05:49.985Z,5.67
2018-05-03T15:08:18.316Z,4.07
2018-05-03T15:10:46.641Z,2.30
2018-05-03T15:13:15.236Z,2.17
2018-05-03T15:15:43.521Z,4.03
2018-05-03T15:18:11.839Z,7.30
2018-05-03T15:20:40.145Z,13.17
2018-05-03T15:23:09.216Z,10.10
2018-05-03T15:25:37.604Z,17.13
2018-05-03T15:28:05.940Z,8.13
2018-05-03T15:30:34.986Z,9.10
2018-05-03T15:33:03.320Z,8.30
2018-05-03T15:35:32.372Z,9.40
2018-05-03T15:38:00.656Z,10.27
2018-05-03T15:40:29.086Z,9.97
2018-05-03T15:42:57.416Z,10.97
2018-05-03T15:45:25.700Z,9.83
2018-05-03T15:47:54.868Z,12.03
2018-05-03T15:50:23.200Z,8.77
2018-05-03T15:52:52.552Z,11.83
2018-05-03T15:55:20.866Z,11.23
2018-05-03T15:57:49.149Z,8.77
2018-05-03T16:00:17.549Z,5.60
2018-05-03T16:02:45.824Z,5.80
2018-05-03T16:05:14.113Z,11.83
2018-05-03T16:07:42.510Z,4.60
2018-05-03T16:10:11.626Z,5.30
2018-05-03T16:12:39.906Z,5.90
2018-05-03T16:15:08.309Z,6.40
2018-05-03T16:17:36.595Z,3.37
2018-05-03T16:20:04.992Z,3.20
2018-05-03T16:22:33.321Z,4.20
2018-05-03T16:25:02.365Z,4.20
2018-05-03T16:27:30.761Z,3.20
2018-05-03T16:29:59.377Z,3.70
2018-05-03T16:32:27.765Z,4.23
2018-05-03T16:34:56.049Z,1.63
2018-05-03T16:37:24.388Z,4.10
2018-05-03T16:39:53.456Z,1.27
2018-05-03T16:42:21.788Z,4.53
2018-05-03T16:44:50.093Z,1.93
2018-05-03T16:47:18.425Z,1.20
2018-05-03T16:49:46.718Z,5.13
2018-05-03T16:52:15.001Z,2.00
2018-05-03T16:54:43.335Z,2.97
2018-05-03T16:57:12.381Z,2.30
2018-05-03T16:59:40.709Z,3.60
2018-05-03T17:02:10.493Z,2.27
2018-05-03T17:04:38.829Z,4.00
2018-05-03T17:07:07.200Z,0.90
2018-05-03T17:09:35.481Z,5.90
2018-05-03T17:12:03.808Z,2.87
2018-05-03T17:14:32.861Z,5.23
2018-05-03T17:17:01.201Z,3.80
2018-05-03T17:19:29.530Z,3.13
2018-05-03T17:21:57.826Z,1.63
2018-05-03T17:24:26.154Z,2.20
2018-05-03T17:26:54.433Z,1.77
2018-05-03T17:29:22.764Z,2.67
2018-05-03T17:31:51.880Z,1.77
2018-05-03T17:34:20.161Z,2.00
2018-05-03T17:36:49.230Z,1.00
2018-05-03T17:39:17.827Z,1.13
2018-05-03T17:41:46.108Z,2.70
2018-05-03T17:44:14.397Z,2.40
2018-05-03T17:46:42.724Z,1.53
2018-05-03T17:49:11.817Z,2.30
2018-05-03T17:51:40.096Z,1.53
2018-05-03T17:54:08.693Z,2.57
2018-05-03T17:56:36.977Z,1.37
2018-05-03T17:59:05.260Z,1.03
2018-05-03T18:01:33.589Z,2.20
2018-05-03T18:04:02.773Z,0.63
2018-05-03T18:06:31.065Z,2.23
2018-05-03T18:08:59.760Z,4.10
2018-05-03T18:11:28.053Z,1.33
2018-05-03T18:13:56.332Z,3.37
2018-05-03T18:16:24.765Z,2.00
2018-05-03T18:18:53.016Z,1.53
2018-05-03T18:21:21.371Z,2.60
2018-05-03T18:23:49.649Z,1.07
2018-05-03T18:26:18.010Z,2.50
2018-05-03T18:28:46.352Z,2.07
2018-05-03T18:31:14.638Z,2.20
2018-05-03T18:33:42.981Z,2.53
2018-05-03T18:36:12.029Z,1.63
2018-05-03T18:38:40.352Z,1.37
2018-05-03T18:41:09.872Z,5.67
2018-05-03T18:43:38.261Z,2.00
2018-05-03T18:46:06.552Z,0.80
2018-05-03T18:48:34.885Z,1.33
2018-05-03T18:51:03.976Z,0.50
2018-05-03T18:53:32.297Z,0.90
2018-05-03T18:56:00.624Z,4.07
2018-05-03T18:58:28.913Z,3.80
2018-05-03T19:00:57.202Z,1.00
2018-05-03T19:03:25.533Z,1.60
2018-05-03T19:05:54.709Z,2.03
2018-05-03T19:08:22.996Z,0.90
2018-05-03T19:10:51.333Z,5.37
2018-05-03T19:13:19.701Z,2.27
2018-05-03T19:15:48.005Z,3.30
2018-05-03T19:18:17.109Z,1.63
2018-05-03T19:20:46.226Z,3.40
2018-05-03T19:23:15.468Z,3.07
2018-05-03T19:25:43.693Z,3.30
2018-05-03T19:28:12.049Z,2.50
2018-05-03T19:30:40.328Z,3.57
2018-05-03T19:33:08.614Z,5.87
2018-05-03T19:35:37.074Z,10.57
2018-05-03T19:38:05.277Z,4.03
2018-05-03T19:40:33.565Z,4.20
2018-05-03T19:43:01.900Z,2.80
2018-05-03T19:45:30.229Z,3.90
2018-05-03T19:47:59.281Z,5.50
2018-05-03T19:50:27.600Z,7.87
2018-05-03T19:52:56.197Z,6.63
2018-05-03T19:55:24.560Z,18.83
2018-05-03T19:57:52.833Z,15.40
2018-05-03T20:00:21.177Z,10.13
2018-05-03T20:02:49.557Z,5.03
2018-05-03T20:05:17.897Z,4.30
2018-05-03T20:07:46.183Z,1.80
2018-05-03T20:10:14.524Z,3.43
2018-05-03T20:12:42.830Z,2.63
2018-05-03T20:15:12.650Z,4.90
2018-05-03T20:17:41.761Z,2.80
2018-05-03T20:20:10.045Z,1.90
2018-05-03T20:22:38.428Z,1.77
2018-05-03T20:25:06.765Z,2.87
2018-05-03T20:27:35.418Z,2.53
2018-05-03T20:30:03.705Z,5.13
2018-05-03T20:32:31.988Z,1.23
2018-05-03T20:35:00.322Z,1.03
2018-05-03T20:37:29.375Z,3.83
2018-05-03T20:39:57.705Z,1.70
2018-05-03T20:42:26.764Z,0.60
2018-05-03T20:44:55.093Z,2.17
2018-05-03T20:47:23.376Z,5.23
2018-05-03T20:49:51.724Z,1.43
2018-05-03T20:52:20.009Z,2.00
2018-05-03T20:54:48.300Z,9.53
2018-05-03T20:57:16.633Z,2.20
2018-05-03T20:59:44.920Z,2.00
2018-05-03T21:02:13.305Z,2.60
2018-05-03T21:04:41.699Z,0.90
2018-05-03T21:07:10.054Z,1.10
2018-05-03T21:09:38.372Z,2.00
2018-05-03T21:12:06.660Z,4.67
2018-05-03T21:14:35.005Z,2.17
2018-05-03T21:17:03.285Z,3.37
2018-05-03T21:19:32.337Z,2.50
2018-05-03T21:22:00.749Z,1.20
2018-05-03T21:24:30.545Z,1.83
2018-05-03T21:26:58.959Z,5.20
2018-05-03T21:29:27.248Z,1.17
2018-05-03T21:31:55.576Z,1.63
2018-05-03T21:34:24.676Z,3.00
2018-05-03T21:36:53.728Z,1.83
2018-05-03T21:39:22.067Z,1.60
2018-05-03T21:41:50.349Z,3.57
2018-05-03T21:44:18.735Z,0.80
2018-05-03T21:46:47.073Z,1.57
2018-05-03T21:49:15.357Z,1.70
2018-05-03T21:51:43.640Z,2.80
2018-05-03T21:54:12.741Z,3.83
2018-05-03T21:56:42.008Z,3.27
2018-05-03T21:59:10.293Z,4.60
2018-05-03T22:01:38.613Z,1.30
2018-05-03T22:04:06.962Z,2.60
2018-05-03T22:06:35.246Z,1.57
2018-05-03T22:09:03.540Z,2.00
2018-05-03T22:11:31.880Z,3.00
2018-05-03T22:14:00.252Z,2.60
2018-05-03T22:16:28.492Z,2.10
2018-05-03T22:18:56.772Z,1.60
2018-05-03T22:21:25.861Z,2.57
2018-05-03T22:23:54.240Z,2.20
2018-05-03T22:26:22.581Z,1.20
2018-05-03T22:28:50.857Z,1.03
2018-05-03T22:31:19.901Z,3.37
2018-05-03T22:33:48.229Z,3.07
2018-05-03T22:36:16.504Z,2.93
2018-05-03T22:38:44.893Z,3.80
2018-05-03T22:41:13.169Z,7.33
2018-05-03T22:43:41.496Z,3.83
2018-05-03T22:46:09.777Z,2.40
2018-05-03T22:48:38.106Z,2.73
2018-05-03T22:51:06.386Z,1.67
2018-05-03T22:53:35.476Z,3.07
2018-05-03T22:56:03.848Z,2.37
2018-05-03T22:58:32.236Z,1.87
2018-05-03T23:01:00.628Z,7.60
2018-05-03T23:03:28.906Z,2.33
2018-05-03T23:05:57.184Z,2.67
2018-05-03T23:08:25.505Z,4.67
2018-05-03T23:10:53.781Z,1.40
2018-05-03T23:13:22.115Z,3.57
2018-05-03T23:15:51.180Z,2.77
2018-05-03T23:18:19.456Z,2.57
2018-05-03T23:20:47.868Z,2.93
2018-05-03T23:23:16.149Z,1.93
2018-05-03T23:25:44.426Z,6.40
2018-05-03T23:28:12.764Z,1.87
2018-05-03T23:30:41.813Z,4.47
2018-05-03T23:33:10.089Z,2.73
2018-05-03T23:35:38.732Z,1.77
2018-05-03T23:38:07.004Z,3.70
2018-05-03T23:40:35.284Z,4.60
2018-05-03T23:43:03.613Z,2.77
2018-05-03T23:45:33.440Z,3.40
2018-05-03T23:48:01.717Z,5.40
2018-05-03T23:50:30.041Z,3.00
2018-05-03T23:52:59.117Z,2.43
2018-05-03T23:55:27.445Z,1.80
2018-05-03T23:57:56.489Z,3.73
